Time;durP1;ratioP1;P1;durP2;ratioP2;P2;SDS_P1;SDS_P2;PMS_P1;PMS_P2;Temp;Humidity;BMP_temperature;BMP_pressure;BME280_temperature;BME280_humidity;BME280_pressure;Samples;Min_cycle;Max_cycle;Signal;HPM_P1;HPM_P2
2021/04/04 11:35:15;;;;;;;15.43;5.62;;;;;;;9.62;48.14;100671.36;11033695;77;22197;-70
2021/04/04 11:50:27;;;;;;;48.23;25.57;;;;;;;10.95;47.66;100655.48;10731126;81;98638;-70
2021/04/04 12:05:37;;;;;;;20.85;9.90;;;;;;;10.95;47.19;100633.17;10716146;81;98814;-70
2021/04/04 12:20:43;;;;;;;27.67;12.07;;;;;;;10.13;48.79;100608.38;10618623;82;98815;-70
2021/04/04 12:35:51;;;;;;;8.10;3.05;;;;;;;10.12;49.04;100604.09;10681319;82;98949;-70
2021/04/04 12:51:00;;;;;;;29.40;15.68;;;;;;;10.19;48.01;100574.27;10595382;82;98470;-71
2021/04/04 13:06:05;;;;;;;2.58;1.85;;;;;;;10.36;47.91;100548.86;10562528;82;99121;-70
2021/04/04 13:21:15;;;;;;;8.45;3.55;;;;;;;12.06;45.24;100525.52;10691107;81;97632;-70
2021/04/04 13:36:22;;;;;;;67.20;29.63;;;;;;;11.48;43.64;100506.92;10541465;82;98590;-71
2021/04/04 13:51:26;;;;;;;17.17;9.45;;;;;;;12.18;44.12;100480.19;10264803;85;98933;-71
2021/04/04 14:06:37;;;;;;;6.50;4.03;;;;;;;12.41;42.03;100453.90;10226782;83;98799;-71
2021/04/04 14:21:41;;;;;;;6.28;4.28;;;;;;;17.52;38.40;100426.31;10292040;84;98606;-71
2021/04/04 14:36:45;;;;;;;3.35;2.40;;;;;;;14.75;39.72;100392.89;10360628;85;98733;-72
2021/04/04 14:51:50;;;;;;;7.60;4.35;;;;;;;15.69;37.06;100369.75;10385394;84;98587;-71
2021/04/04 15:06:55;;;;;;;5.05;3.00;;;;;;;22.60;31.84;100344.16;10464322;82;98686;-71
2021/04/04 15:22:00;;;;;;;12.03;6.27;;;;;;;21.88;30.71;100310.78;10628799;82;99559;-71
2021/04/04 15:37:06;;;;;;;9.37;3.43;;;;;;;17.13;34.27;100284.95;10548644;82;98823;-71
2021/04/04 15:52:11;;;;;;;7.25;3.58;;;;;;;17.98;34.49;100248.98;10628684;82;98708;-71
2021/04/04 16:07:15;;;;;;;7.20;2.80;;;;;;;13.83;37.36;100245.73;10525021;82;98999;-71
2021/04/04 16:22:19;;;;;;;6.47;2.87;;;;;;;17.96;33.73;100218.14;10545116;82;98659;-71
2021/04/04 16:37:23;;;;;;;4.62;2.65;;;;;;;12.76;38.49;100190.49;10596613;81;98644;-71
2021/04/04 16:52:29;;;;;;;6.87;3.45;;;;;;;10.18;44.20;100167.60;10608831;82;98480;-70
2021/04/04 17:07:35;;;;;;;12.43;5.90;;;;;;;9.48;46.28;100150.83;10619099;82;98418;-69
2021/04/04 17:22:40;;;;;;;10.93;4.60;;;;;;;9.05;47.58;100140.06;10618176;82;98416;-72
2021/04/04 17:37:44;;;;;;;24.25;10.38;;;;;;;8.42;49.19;100113.41;10783079;81;97526;-71
2021/04/04 17:52:50;;;;;;;19.07;7.95;;;;;;;8.10;50.50;100103.79;10718336;82;98616;-68
2021/04/04 18:08:19;;;;;;;20.37;9.85;;;;;;;7.67;51.95;100091.53;10647134;82;98343;-68
2021/04/04 18:23:18;;;;;;;10.85;5.50;;;;;;;7.40;52.48;100077.55;10633523;82;98331;-69
2021/04/04 18:38:23;;;;;;;15.18;6.70;;;;;;;7.11;53.14;100055.40;10611252;82;98440;-80
2021/04/04 18:53:29;;;;;;;39.03;11.45;;;;;;;6.87;54.23;100048.14;10658456;82;98273;-79
2021/04/04 19:08:36;;;;;;;31.20;9.28;;;;;;;6.72;54.61;100030.11;10635600;83;98541;-80
2021/04/04 19:23:40;;;;;;;117.90;69.65;;;;;;;6.49;55.50;100006.63;10459737;84;98341;-80
2021/04/04 19:38:46;;;;;;;25.30;10.88;;;;;;;6.26;57.04;99982.28;10355885;85;98574;-83
2021/04/04 19:53:51;;;;;;;14.60;6.70;;;;;;;6.01;57.65;99943.39;10329064;84;98372;-78
2021/04/04 20:08:56;;;;;;;20.63;6.50;;;;;;;5.68;61.54;99893.67;10415772;84;97262;-79
2021/04/04 20:24:01;;;;;;;15.83;7.50;;;;;;;5.68;61.54;99893.67;10410958;84;97301;-80
2021/04/04 20:39:07;;;;;;;19.17;8.23;;;;;;;5.51;64.20;99859.78;10289511;83;98267;-78
2021/04/04 20:54:12;;;;;;;17.12;7.58;;;;;;;5.38;65.82;99833.83;10633496;83;98051;-80
2021/04/04 21:09:16;;;;;;;15.38;7.97;;;;;;;5.24;67.92;99806.25;10634779;82;97296;-79
2021/04/04 21:24:24;;;;;;;14.85;7.90;;;;;;;5.12;68.59;99775.47;10597944;83;98272;-83
2021/04/04 21:39:28;;;;;;;19.27;8.20;;;;;;;5.02;69.19;99752.38;10629594;82;98229;-84
2021/04/04 21:54:34;;;;;;;22.00;8.60;;;;;;;4.89;69.47;99718.65;10464646;85;98146;-83
2021/04/04 22:09:39;;;;;;;14.00;7.60;;;;;;;4.88;69.69;99688.39;10649289;83;98139;-84
2021/04/04 22:24:43;;;;;;;16.05;7.83;;;;;;;4.72;71.34;99658.81;10616472;82;98177;-84
2021/04/04 22:39:47;;;;;;;15.35;7.83;;;;;;;4.45;73.05;99641.71;10552392;83;98207;-75
2021/04/04 22:54:53;;;;;;;18.45;8.20;;;;;;;4.35;74.13;99613.45;10201433;85;98519;-75
2021/04/04 23:09:58;;;;;;;15.23;7.10;;;;;;;4.23;74.79;99592.28;10580256;82;98164;-74
2021/04/04 23:25:05;;;;;;;16.00;8.18;;;;;;;4.09;75.83;99556.92;10574451;83;98844;-74
2021/04/04 23:40:13;;;;;;;19.80;9.00;;;;;;;3.94;77.62;99508.26;10631439;82;98229;-73
2021/04/04 23:55:17;;;;;;;16.55;7.33;;;;;;;3.90;77.97;99483.48;10620646;81;98134;-74
